Portada
METAR-TAF:

METAR-TAF

Aeroports :

Selebi-Phikwe, Botswana

latitud: 22-03-19S, longitud: 027-49-13E, altitud: 892 m

Observació

L'informe es va fer fa 10 hores i 15 minuts, a les 18:00 UTC
Vent 12 kt del Est
Temperatura 31°C
Humitat 49%
Pressió 1017 hPa
Visibilitat 10 km o més
Núvols disperses a una alçada de 3000 ft

METAR: FBSP 271800Z 09012KT 9999 SCT030 31/19 Q1017

Hora: 06:15 (04:15 UTC)

Pronòstic

L'informe es va fer fa 16 hores i 15 minuts, a les 12:00 UTC
Pronòstic vàlid del 27 a les 15 UTC al 27 a les 24 UTC
Vent 10 kt del Est
Visibilitat 10 km o més
sense núvols per sota de 1500 mi sense presència de cumulonimbus.
Evolucionant progressivament
l' 27 a les 21 UTC al 27 a les 24 UTC
Cel ennuvolat a una alçada de 1400 ft

TAF: FBSP 271200Z 2715/2724 09010KT CAVOK BECMG 2721/2724 BKN014

Observacions i pronòstics meteorològics de més de 4000 aeroports (METAR i TAF).

Les estacions disponibles són els punts grocs i vermells al mapa.

Posi el ratolí al punt desitjat per veure el nom de l'estació.

Feu clic per veure les observacions i els pronòstics meteorològics.

Per canviar el mapa: feu clic els botons verds amb una creu de color negre per apropar; al botó verd amb un guió per allunyar la imatge; o en les fletxes verdes per a mapes adjacents.


METAR-TAF: